Terminal Aerodrome Forecast
Issued by NWS Cleveland, OH

Home | Current Version | Previous Version | Graphics & Text | Print | Product List | Glossary On
Versions: 1 2 3 4 5 6 7 8 9 10 11 12 13 14
000
FTUS41 KCLE 130500
TAFCAK
TAF
KCAK 130539Z 1306/1406 20007KT P6SM SCT060 BKN090
     FM131100 21010KT P6SM VCSH BKN060
     FM131400 23012G20KT 6SM -SHRA BKN040
      TEMPO 1315/1319 3SM -TSRA BR SCT015 OVC025CB
     FM131900 23012G20KT P6SM -SHRA VCTS SCT025 OVC035CB
     FM132300 24007KT P6SM BKN035=

USA.gov is the U.S. government's official web portal to all federal, state and local government web resources and services.